Terminal Aerodrome Forecast
Issued by NWS Wilmington, OH

Current Version | Previous Version | Text Only | Print | Product List | Glossary Off
Versions: 1 2 3 4 5 6 7 8 9 10 11 12 13 14 15 16 17

259
FTUS41 KILN 031127
TAFDAY
TAF
KDAY 031127Z 0312/0412 20016G23KT P6SM SCT013 OVC050
      TEMPO 0312/0314 OVC013
     FM031400 24016G26KT P6SM SCT025
     FM031500 24018G30KT P6SM BKN035
     FM040100 26016G23KT P6SM OVC018
     FM040800 26012KT P6SM OVC015=

USA.gov is the U.S. government's official web portal to all federal, state and local government web resources and services.